Time;durP1;ratioP1;P1;durP2;ratioP2;P2;SDS_P1;SDS_P2;PMS_P1;PMS_P2;Temp;Humidity;BMP_temperature;BMP_pressure;BME280_temperature;BME280_humidity;BME280_pressure;Samples;Min_cycle;Max_cycle;Signal;HPM_P1;HPM_P2
2022/10/22 00:01:04;;;;;;;7.30;6.43;;;18.80;67.90;;;;;;5108421;28;20438;-84
2022/10/22 00:03:31;;;;;;;46.90;9.13;;;18.70;68.20;;;;;;5108431;28;20553;-84
2022/10/22 00:05:58;;;;;;;21.83;8.33;;;18.70;68.60;;;;;;5105055;28;20449;-85
2022/10/22 00:08:27;;;;;;;50.40;9.33;;;18.70;68.50;;;;;;5108087;28;20454;-83
2022/10/22 00:10:54;;;;;;;14.97;7.00;;;18.60;68.70;;;;;;5109002;28;20449;-85
2022/10/22 00:13:21;;;;;;;27.30;8.93;;;18.70;68.70;;;;;;5108277;28;20981;-84
2022/10/22 00:15:48;;;;;;;36.03;10.00;;;18.70;68.60;;;;;;5116478;28;20995;-85
2022/10/22 00:18:15;;;;;;;21.93;7.80;;;18.70;69.60;;;;;;5108078;28;20446;-85
2022/10/22 00:20:42;;;;;;;115.60;12.90;;;18.70;68.90;;;;;;5108499;27;20446;-85
2022/10/22 00:23:09;;;;;;;68.27;10.40;;;18.70;68.50;;;;;;5111765;27;21015;-84
2022/10/22 00:25:38;;;;;;;25.03;8.87;;;18.50;69.00;;;;;;5112076;27;20435;-84
2022/10/22 00:28:05;;;;;;;34.80;9.30;;;18.50;69.30;;;;;;5113086;27;20446;-84
2022/10/22 00:30:32;;;;;;;13.53;7.90;;;18.20;70.20;;;;;;5119506;27;20536;-84
2022/10/22 00:32:59;;;;;;;11.33;6.60;;;18.30;70.20;;;;;;5112893;27;20488;-84
2022/10/22 00:35:26;;;;;;;13.33;7.07;;;18.40;69.80;;;;;;5114326;27;20470;-84
2022/10/22 00:37:53;;;;;;;8.17;6.93;;;18.40;69.30;;;;;;5113424;27;20447;-84
2022/10/22 00:40:20;;;;;;;8.93;6.40;;;18.40;69.60;;;;;;5111736;27;20465;-84
2022/10/22 00:42:49;;;;;;;8.13;5.87;;;18.30;69.60;;;;;;5112328;27;20524;-85
2022/10/22 00:45:21;;;;;;;8.73;6.83;;;18.30;69.90;;;;;;5110240;27;20488;-84
2022/10/22 00:47:53;;;;;;;10.27;7.20;;;18.50;69.40;;;;;;5101393;27;21123;-84
2022/10/22 00:50:25;;;;;;;9.93;7.17;;;18.50;68.80;;;;;;5110140;27;20446;-84
2022/10/22 00:52:52;;;;;;;7.80;6.50;;;18.40;68.50;;;;;;5109470;27;20465;-84
2022/10/22 00:55:20;;;;;;;12.93;7.67;;;18.40;68.90;;;;;;5110463;27;20476;-84
2022/10/22 00:57:49;;;;;;;8.60;6.10;;;18.40;69.20;;;;;;5113388;27;20450;-83
2022/10/22 01:00:17;;;;;;;7.87;6.87;;;18.40;69.30;;;;;;5110582;27;20553;-84
2022/10/22 01:02:44;;;;;;;6.77;5.63;;;18.50;69.10;;;;;;5111844;27;20499;-84
2022/10/22 01:05:11;;;;;;;5.90;5.00;;;18.60;68.60;;;;;;5110021;27;20453;-84
2022/10/22 01:07:42;;;;;;;6.00;5.13;;;18.70;68.30;;;;;;5109573;27;20516;-84
2022/10/22 01:10:20;;;;;;;4.53;4.17;;;18.70;67.80;;;;;;5110237;27;20529;-83
2022/10/22 01:12:57;;;;;;;5.33;4.43;;;18.50;68.00;;;;;;5112731;27;20474;-84
2022/10/22 01:15:29;;;;;;;7.37;4.77;;;18.30;69.00;;;;;;5109791;27;20463;-85
2022/10/22 01:18:02;;;;;;;5.00;4.50;;;18.20;69.90;;;;;;5109110;27;20457;-84
2022/10/22 01:20:49;;;;;;;8.37;5.50;;;18.10;70.20;;;;;;5112118;27;20446;-84
2022/10/22 01:23:50;;;;;;;10.50;5.20;;;18.20;69.90;;;;;;5111617;27;20491;-84
2022/10/22 01:26:27;;;;;;;6.47;4.33;;;18.30;69.90;;;;;;5099425;27;20458;-84
2022/10/22 01:29:01;;;;;;;5.93;4.47;;;18.10;70.40;;;;;;5110637;27;20868;-84
2022/10/22 01:31:32;;;;;;;5.63;4.73;;;17.70;71.70;;;;;;5111714;27;20449;-84
2022/10/22 01:34:01;;;;;;;41.07;8.13;;;17.60;72.70;;;;;;5111190;27;20468;-84
2022/10/22 01:36:31;;;;;;;10.10;6.50;;;17.70;72.00;;;;;;5110900;27;20447;-84
2022/10/22 01:39:00;;;;;;;9.20;6.70;;;17.90;71.60;;;;;;5110372;27;20447;-84
2022/10/22 01:41:28;;;;;;;8.30;5.90;;;18.10;70.80;;;;;;5109535;27;20439;-84
2022/10/22 01:43:56;;;;;;;8.67;5.67;;;18.30;71.00;;;;;;5108359;27;20520;-82
2022/10/22 01:46:26;;;;;;;7.03;5.20;;;18.40;69.70;;;;;;5109879;27;20450;-84
2022/10/22 01:49:11;;;;;;;10.37;4.00;;;18.40;69.00;;;;;;5108452;27;20454;-84
2022/10/22 01:51:51;;;;;;;7.40;4.00;;;18.30;69.10;;;;;;5110026;27;21261;-84
2022/10/22 01:54:29;;;;;;;4.27;3.20;;;18.20;70.40;;;;;;5107883;27;20481;-84
2022/10/22 01:57:06;;;;;;;6.20;3.67;;;18.20;70.60;;;;;;5107947;27;20443;-84
2022/10/22 01:59:45;;;;;;;10.57;3.57;;;18.30;70.50;;;;;;5109013;27;20458;-84
2022/10/22 02:02:22;;;;;;;4.70;3.30;;;18.40;70.10;;;;;;5108530;27;20452;-84
2022/10/22 02:04:53;;;;;;;12.17;3.30;;;18.50;69.60;;;;;;5109456;27;20473;-83
2022/10/22 02:07:25;;;;;;;4.77;3.80;;;18.50;69.70;;;;;;5110465;27;20477;-85
2022/10/22 02:09:54;;;;;;;4.93;4.33;;;18.40;69.80;;;;;;5109267;27;20485;-84
2022/10/22 02:12:23;;;;;;;11.73;4.23;;;18.40;70.00;;;;;;5111234;27;20476;-84
2022/10/22 02:14:53;;;;;;;453.57;36.43;;;18.30;70.10;;;;;;5108901;27;20589;-84
2022/10/22 02:17:22;;;;;;;91.37;11.57;;;18.30;69.80;;;;;;5109577;27;20534;-85
2022/10/22 02:19:54;;;;;;;20.10;7.40;;;18.40;69.80;;;;;;5110373;27;20455;-84
2022/10/22 02:22:21;;;;;;;42.23;7.43;;;18.40;69.30;;;;;;5119399;27;20482;-84
2022/10/22 02:24:50;;;;;;;4.27;3.87;;;18.40;69.30;;;;;;5111721;27;20548;-84
2022/10/22 02:27:21;;;;;;;4.87;4.40;;;18.20;69.80;;;;;;5107921;27;20446;-84
2022/10/22 02:29:58;;;;;;;5.90;5.30;;;18.20;70.60;;;;;;5108992;27;20788;-84
2022/10/22 02:32:30;;;;;;;2.50;2.30;;;18.30;69.40;;;;;;5110749;27;20938;-84
2022/10/22 02:34:58;;;;;;;3.20;2.90;;;18.20;69.20;;;;;;5110002;27;20539;-84
2022/10/22 02:37:26;;;;;;;3.27;2.97;;;17.90;71.20;;;;;;5109902;27;20450;-84
2022/10/22 02:39:55;;;;;;;4.13;2.33;;;18.00;71.30;;;;;;5108068;27;20544;-85
2022/10/22 02:42:24;;;;;;;4.30;3.20;;;18.10;71.10;;;;;;5108402;27;20447;-84
2022/10/22 02:44:51;;;;;;;5.97;2.83;;;18.10;71.00;;;;;;5108016;27;20864;-84
2022/10/22 02:47:19;;;;;;;4.57;2.90;;;18.10;70.60;;;;;;5107502;27;20441;-84
2022/10/22 02:49:46;;;;;;;4.50;2.03;;;18.10;71.00;;;;;;5110784;27;20497;-83
2022/10/22 02:52:13;;;;;;;3.23;2.80;;;17.90;71.50;;;;;;5109789;27;20464;-84
2022/10/22 02:54:40;;;;;;;3.93;2.30;;;17.80;71.90;;;;;;5107275;27;21000;-84
2022/10/22 02:57:07;;;;;;;5.13;2.27;;;17.80;71.50;;;;;;5108607;27;20552;-84
2022/10/22 02:59:34;;;;;;;2.77;2.47;;;17.80;71.50;;;;;;5108816;27;20446;-85
2022/10/22 03:02:01;;;;;;;3.00;2.70;;;17.90;71.50;;;;;;5108478;27;20934;-84
2022/10/22 03:04:30;;;;;;;8.40;4.03;;;18.00;71.00;;;;;;5108404;27;20468;-85
2022/10/22 03:06:57;;;;;;;5.33;4.60;;;18.20;70.90;;;;;;5108997;27;20968;-84
2022/10/22 03:09:24;;;;;;;4.30;3.90;;;18.30;70.60;;;;;;5107847;27;20451;-84
2022/10/22 03:11:51;;;;;;;7.00;5.20;;;18.40;70.30;;;;;;5092565;28;20449;-84
2022/10/22 03:14:18;;;;;;;4.70;2.90;;;18.40;69.50;;;;;;5109512;28;20474;-85
2022/10/22 03:16:45;;;;;;;3.53;2.53;;;18.40;69.80;;;;;;5089725;28;20518;-84
2022/10/22 03:19:12;;;;;;;2.73;1.77;;;18.40;69.50;;;;;;5106954;28;21257;-85
2022/10/22 03:21:45;;;;;;;2.70;2.50;;;18.40;69.10;;;;;;5108263;28;20462;-84
2022/10/22 03:24:17;;;;;;;5.10;2.30;;;18.30;69.70;;;;;;5108122;28;20490;-84
2022/10/22 03:26:46;;;;;;;2.00;1.80;;;18.30;69.70;;;;;;5108867;28;20442;-84
2022/10/22 03:29:15;;;;;;;2.33;1.60;;;18.40;69.60;;;;;;5109294;28;20538;-84
2022/10/22 03:31:42;;;;;;;1.70;1.60;;;18.30;69.50;;;;;;5102696;27;20455;-83
2022/10/22 03:34:10;;;;;;;2.03;1.87;;;18.20;69.90;;;;;;5108971;27;20466;-83
2022/10/22 03:36:38;;;;;;;2.57;1.90;;;18.20;69.90;;;;;;5090918;28;20814;-84
2022/10/22 03:39:07;;;;;;;2.63;2.33;;;18.20;69.80;;;;;;5090792;28;20459;-84
2022/10/22 03:41:35;;;;;;;2.17;1.63;;;18.30;69.60;;;;;;5107116;28;20447;-84
2022/10/22 03:44:04;;;;;;;2.30;1.57;;;18.10;69.40;;;;;;5109106;28;20477;-85
2022/10/22 03:46:31;;;;;;;2.70;1.67;;;18.10;69.80;;;;;;5109673;28;20443;-84
2022/10/22 03:48:58;;;;;;;2.23;1.57;;;18.20;69.50;;;;;;5108462;28;20447;-84
2022/10/22 03:51:26;;;;;;;2.33;2.13;;;18.10;69.80;;;;;;5088532;28;20935;-85
2022/10/22 03:53:53;;;;;;;1.97;1.87;;;18.20;69.50;;;;;;5107220;28;20473;-84
2022/10/22 03:56:22;;;;;;;1.43;1.33;;;18.40;69.00;;;;;;5107545;27;20990;-84
2022/10/22 03:58:49;;;;;;;2.23;1.50;;;18.40;68.90;;;;;;5111739;27;20452;-84
2022/10/22 04:01:16;;;;;;;2.27;1.60;;;18.40;68.60;;;;;;5113458;27;20823;-85
2022/10/22 04:03:43;;;;;;;2.27;1.70;;;18.30;68.70;;;;;;5112910;27;20474;-84
2022/10/22 04:06:12;;;;;;;1.70;1.60;;;18.30;68.80;;;;;;5112167;27;20450;-84
2022/10/22 04:08:41;;;;;;;2.30;1.73;;;18.30;69.40;;;;;;5113124;27;20447;-84
2022/10/22 04:11:08;;;;;;;1.57;1.47;;;18.20;68.80;;;;;;5112204;27;20900;-85
2022/10/22 04:13:37;;;;;;;5.40;1.50;;;18.10;69.10;;;;;;5112752;27;20466;-85
2022/10/22 04:16:08;;;;;;;2.03;1.83;;;18.10;69.40;;;;;;5110738;27;20566;-84
2022/10/22 04:18:35;;;;;;;5.33;1.70;;;18.00;69.70;;;;;;5111189;27;20573;-84
2022/10/22 04:21:02;;;;;;;1.60;1.50;;;18.00;69.80;;;;;;5094362;27;20458;-84
2022/10/22 04:23:29;;;;;;;4.33;1.70;;;18.00;69.30;;;;;;5109848;27;20501;-84
2022/10/22 04:25:58;;;;;;;1.30;1.20;;;18.00;69.70;;;;;;5112181;27;20526;-83
2022/10/22 04:28:25;;;;;;;1.63;1.53;;;17.90;69.40;;;;;;5110228;27;20498;-84
2022/10/22 04:30:53;;;;;;;1.77;1.57;;;18.00;69.60;;;;;;5110286;27;20453;-85
2022/10/22 04:33:21;;;;;;;1.83;1.50;;;18.10;69.20;;;;;;5114177;27;20474;-84
2022/10/22 04:35:48;;;;;;;3.50;1.70;;;18.20;69.00;;;;;;5112475;27;20555;-84
2022/10/22 04:38:15;;;;;;;1.80;1.50;;;18.10;69.10;;;;;;5108226;27;20436;-85
2022/10/22 04:40:43;;;;;;;1.70;1.50;;;18.00;69.50;;;;;;5109261;27;21339;-84
2022/10/22 04:43:10;;;;;;;1.80;1.70;;;18.10;69.00;;;;;;5112083;27;20981;-84
2022/10/22 04:45:37;;;;;;;3.40;1.80;;;18.10;68.90;;;;;;5109956;27;20447;-84
2022/10/22 04:48:06;;;;;;;2.77;2.00;;;18.20;69.00;;;;;;5109996;27;20444;-84
2022/10/22 04:50:33;;;;;;;13.43;2.10;;;18.30;69.00;;;;;;5111952;27;20454;-84
2022/10/22 04:53:00;;;;;;;3.97;2.57;;;18.40;68.70;;;;;;5109391;27;20493;-84
2022/10/22 04:55:27;;;;;;;6.83;2.27;;;18.40;68.80;;;;;;5109888;27;20470;-84
2022/10/22 04:57:54;;;;;;;2.17;1.97;;;18.40;68.70;;;;;;5110010;27;20573;-85
2022/10/22 05:00:21;;;;;;;2.43;2.07;;;18.30;69.40;;;;;;5111947;27;20458;-84
2022/10/22 05:02:49;;;;;;;4.27;2.37;;;18.20;69.10;;;;;;5111660;27;20504;-84
2022/10/22 05:05:18;;;;;;;2.60;1.63;;;18.20;69.30;;;;;;5112152;27;20447;-84
2022/10/22 05:07:45;;;;;;;2.43;2.00;;;18.20;69.10;;;;;;5110181;27;20461;-85
2022/10/22 05:10:12;;;;;;;3.97;2.00;;;18.30;68.70;;;;;;5110761;27;20462;-84
2022/10/22 05:12:39;;;;;;;2.37;2.17;;;18.30;68.70;;;;;;5111089;27;20438;-84
2022/10/22 05:15:07;;;;;;;2.00;1.90;;;18.20;68.70;;;;;;5109776;27;20530;-84
2022/10/22 05:17:36;;;;;;;2.00;1.80;;;18.10;68.70;;;;;;5089320;27;20457;-85
2022/10/22 05:20:05;;;;;;;3.23;2.20;;;18.00;69.60;;;;;;5108215;27;20447;-84
2022/10/22 05:22:34;;;;;;;3.20;2.27;;;17.90;69.40;;;;;;5109505;27;20440;-84
2022/10/22 05:25:01;;;;;;;5.70;1.87;;;17.80;69.90;;;;;;5094053;27;20462;-84
2022/10/22 05:27:28;;;;;;;2.23;2.03;;;17.80;70.10;;;;;;5109058;27;20832;-85
2022/10/22 05:29:55;;;;;;;4.83;2.20;;;17.70;69.80;;;;;;5108808;27;20459;-84
2022/10/22 05:32:22;;;;;;;3.60;2.90;;;17.70;69.90;;;;;;5107711;27;20453;-85
2022/10/22 05:34:49;;;;;;;2.60;2.40;;;17.60;70.30;;;;;;5108472;27;20478;-84
2022/10/22 05:37:16;;;;;;;7.17;6.47;;;17.70;70.20;;;;;;5113720;27;20480;-85
2022/10/22 05:39:45;;;;;;;12.30;8.77;;;17.80;70.40;;;;;;5110091;27;20479;-84
2022/10/22 05:42:12;;;;;;;8.73;7.83;;;17.80;69.80;;;;;;5110533;27;20454;-84
2022/10/22 05:44:39;;;;;;;9.00;8.20;;;17.80;69.30;;;;;;5091836;27;20463;-84
2022/10/22 05:47:06;;;;;;;8.07;7.23;;;18.00;69.20;;;;;;5109178;27;20443;-84
2022/10/22 05:49:33;;;;;;;8.40;6.20;;;18.20;68.90;;;;;;5112693;27;20573;-84
2022/10/22 05:52:00;;;;;;;5.83;3.90;;;18.30;68.10;;;;;;5090154;27;20459;-84
2022/10/22 05:54:27;;;;;;;6.30;3.73;;;18.20;67.10;;;;;;5109040;27;20470;-85
2022/10/22 05:56:56;;;;;;;5.10;4.70;;;18.10;67.30;;;;;;5108758;27;21262;-84
2022/10/22 05:59:23;;;;;;;7.30;5.57;;;18.00;67.60;;;;;;5107939;27;20463;-82
2022/10/22 06:01:50;;;;;;;8.07;7.37;;;17.80;67.90;;;;;;5106807;27;20447;-83
2022/10/22 06:04:17;;;;;;;6.63;5.93;;;17.60;69.10;;;;;;5094812;27;20970;-85
2022/10/22 06:06:46;;;;;;;4.50;4.20;;;17.30;70.20;;;;;;5108895;27;20435;-85
2022/10/22 06:09:17;;;;;;;7.10;3.93;;;17.30;70.30;;;;;;5109841;27;20550;-85
2022/10/22 06:11:44;;;;;;;3.67;3.37;;;17.60;69.70;;;;;;5104484;27;20456;-85
2022/10/22 06:14:13;;;;;;;8.70;4.63;;;17.90;69.10;;;;;;5105028;27;21347;-84
2022/10/22 06:16:40;;;;;;;7.20;5.30;;;18.00;68.40;;;;;;5102170;27;20474;-84
2022/10/22 06:19:09;;;;;;;3.60;2.63;;;18.10;67.90;;;;;;5107213;27;21389;-84
2022/10/22 06:21:36;;;;;;;2.47;2.27;;;18.20;67.60;;;;;;5105472;27;20446;-85
2022/10/22 06:24:03;;;;;;;2.70;2.50;;;18.00;67.90;;;;;;5108547;27;20476;-82
2022/10/22 06:26:31;;;;;;;3.90;2.70;;;17.70;69.00;;;;;;5106705;27;20443;-84
2022/10/22 06:28:59;;;;;;;2.77;2.57;;;17.70;69.60;;;;;;5103517;27;20534;-85
2022/10/22 06:31:27;;;;;;;3.07;2.87;;;17.70;69.50;;;;;;5101750;27;20448;-84
2022/10/22 06:33:56;;;;;;;2.37;2.10;;;17.80;69.00;;;;;;5104361;27;20484;-83
2022/10/22 06:36:24;;;;;;;2.00;1.80;;;17.80;68.80;;;;;;5106180;27;21337;-83
2022/10/22 06:38:52;;;;;;;9.37;2.37;;;17.80;68.70;;;;;;5107537;27;20457;-85
2022/10/22 06:41:19;;;;;;;12.73;2.27;;;17.80;68.80;;;;;;5107381;27;20453;-84
2022/10/22 06:43:47;;;;;;;2.20;1.90;;;17.90;68.50;;;;;;5106467;27;20964;-83
2022/10/22 06:46:16;;;;;;;5.77;2.13;;;17.80;68.40;;;;;;5109039;27;20450;-85
2022/10/22 06:48:49;;;;;;;4.80;1.90;;;17.80;68.70;;;;;;5105678;27;20450;-84
2022/10/22 06:51:16;;;;;;;2.17;1.97;;;17.90;68.90;;;;;;5106089;27;20443;-83
2022/10/22 06:53:43;;;;;;;2.03;1.80;;;17.90;68.50;;;;;;5086608;27;20519;-84
2022/10/22 06:56:13;;;;;;;3.33;1.90;;;18.10;68.50;;;;;;5105987;27;20470;-84
2022/10/22 06:58:41;;;;;;;3.80;1.77;;;18.10;67.90;;;;;;5113541;27;20787;-84
2022/10/22 07:01:10;;;;;;;1.70;1.60;;;18.10;68.30;;;;;;5106094;27;20461;-84
2022/10/22 07:03:37;;;;;;;2.30;2.10;;;18.20;67.90;;;;;;5107563;27;20516;-84
2022/10/22 07:06:07;;;;;;;2.63;1.77;;;18.20;67.90;;;;;;5106355;27;20500;-83
2022/10/22 07:08:35;;;;;;;3.07;2.60;;;18.20;68.00;;;;;;5113359;27;20576;-83
2022/10/22 07:11:07;;;;;;;4.70;1.70;;;18.20;68.00;;;;;;5105777;27;20447;-84
2022/10/22 07:13:34;;;;;;;1.80;1.70;;;18.20;67.60;;;;;;5107751;27;21063;-84
2022/10/22 07:16:01;;;;;;;1.87;1.77;;;17.90;68.30;;;;;;5105549;27;20573;-84
2022/10/22 07:18:28;;;;;;;4.80;2.13;;;18.00;68.50;;;;;;5109971;27;21293;-84
2022/10/22 07:20:55;;;;;;;1.90;1.80;;;18.00;68.10;;;;;;5106750;28;20451;-85
2022/10/22 07:23:24;;;;;;;5.00;2.10;;;18.00;68.80;;;;;;5108210;28;20461;-85
2022/10/22 07:25:51;;;;;;;4.77;1.57;;;18.10;68.00;;;;;;5107481;28;20443;-85
2022/10/22 07:28:18;;;;;;;3.70;2.00;;;18.00;68.20;;;;;;5109174;28;20867;-84
2022/10/22 07:30:45;;;;;;;2.87;1.70;;;18.00;68.10;;;;;;5104625;28;20496;-84
2022/10/22 07:33:12;;;;;;;3.07;1.30;;;17.90;68.10;;;;;;5111893;27;20520;-84
2022/10/22 07:35:40;;;;;;;5.53;1.40;;;17.90;68.00;;;;;;5110966;27;20485;-83
2022/10/22 07:38:08;;;;;;;1.67;1.57;;;18.00;68.20;;;;;;5111742;27;20480;-84
2022/10/22 07:40:37;;;;;;;3.00;1.60;;;18.00;67.70;;;;;;5111146;27;20457;-85
2022/10/22 07:43:04;;;;;;;2.17;1.97;;;18.00;67.80;;;;;;5111572;27;21076;-84
2022/10/22 07:45:32;;;;;;;2.97;2.77;;;18.10;67.80;;;;;;5111082;27;20535;-85
2022/10/22 07:47:59;;;;;;;4.30;3.30;;;18.10;67.40;;;;;;5108818;27;20457;-84
2022/10/22 07:50:26;;;;;;;1.83;1.73;;;18.20;68.10;;;;;;5110558;27;20468;-84
2022/10/22 07:52:53;;;;;;;7.43;2.27;;;18.20;67.10;;;;;;5112818;27;20458;-85
2022/10/22 07:55:21;;;;;;;13.63;9.77;;;18.30;66.80;;;;;;5120468;27;20454;-84
2022/10/22 07:57:49;;;;;;;12.10;7.10;;;18.30;66.90;;;;;;5112740;27;20477;-85
2022/10/22 08:00:17;;;;;;;8.13;5.97;;;18.30;67.40;;;;;;5112998;27;21404;-85
2022/10/22 08:02:45;;;;;;;9.40;7.43;;;18.30;67.10;;;;;;5113285;27;20449;-86
2022/10/22 08:05:13;;;;;;;5.93;5.30;;;18.50;67.10;;;;;;5111062;27;21910;-85
2022/10/22 08:07:40;;;;;;;10.73;5.73;;;18.60;66.80;;;;;;5113506;27;20438;-85
2022/10/22 08:10:08;;;;;;;4.40;2.77;;;18.60;66.50;;;;;;5113723;27;20444;-85
2022/10/22 08:12:36;;;;;;;5.90;2.37;;;18.70;66.40;;;;;;5113345;27;20458;-86
2022/10/22 08:15:05;;;;;;;3.07;2.87;;;18.80;66.40;;;;;;5113158;27;20474;-85
2022/10/22 08:17:32;;;;;;;4.20;3.70;;;18.80;66.20;;;;;;5109645;27;20462;-85
2022/10/22 08:20:00;;;;;;;6.67;5.40;;;18.80;66.00;;;;;;5112668;27;20490;-85
2022/10/22 08:22:27;;;;;;;5.33;4.17;;;18.80;65.80;;;;;;5114836;27;21390;-86
2022/10/22 08:24:54;;;;;;;6.07;3.13;;;18.80;66.00;;;;;;5112314;27;20487;-85
2022/10/22 08:27:21;;;;;;;4.90;2.80;;;18.80;66.00;;;;;;5112818;27;20438;-86
2022/10/22 08:29:48;;;;;;;3.63;3.33;;;18.80;66.00;;;;;;5110776;27;20450;-86
2022/10/22 08:32:16;;;;;;;2.47;2.27;;;18.90;66.00;;;;;;5110738;27;20459;-85
2022/10/22 08:34:44;;;;;;;3.50;2.50;;;18.90;65.90;;;;;;5113118;27;20483;-86
2022/10/22 08:37:13;;;;;;;2.67;2.40;;;18.90;65.80;;;;;;5110276;27;20992;-87
2022/10/22 08:39:40;;;;;;;2.60;2.23;;;18.90;65.60;;;;;;5110935;27;20450;-85
2022/10/22 08:42:28;;;;;;;2.43;1.73;;;19.00;65.60;;;;;;5110064;27;20458;-85
2022/10/22 08:45:08;;;;;;;3.13;1.63;;;19.00;65.30;;;;;;5109341;27;21053;-85
2022/10/22 08:47:58;;;;;;;3.70;1.63;;;19.00;65.00;;;;;;5108692;27;20446;-86
2022/10/22 08:50:33;;;;;;;1.33;1.23;;;18.90;65.20;;;;;;5110346;27;20862;-86
2022/10/22 08:53:05;;;;;;;1.50;1.40;;;18.90;65.50;;;;;;5108089;27;20457;-86
2022/10/22 08:55:35;;;;;;;1.93;1.13;;;18.90;65.60;;;;;;5108512;27;20439;-86
2022/10/22 08:58:08;;;;;;;2.60;1.73;;;18.70;65.30;;;;;;5109955;27;20578;-87
2022/10/22 09:00:43;;;;;;;3.20;1.50;;;18.80;65.70;;;;;;5105176;27;20449;-86
2022/10/22 09:03:30;;;;;;;1.70;1.50;;;18.90;65.70;;;;;;5105446;27;21016;-85
2022/10/22 09:06:05;;;;;;;1.00;0.90;;;18.90;65.90;;;;;;5111532;27;20442;-86
2022/10/22 09:08:32;;;;;;;5.83;2.50;;;18.80;66.10;;;;;;5108606;27;20590;-87
2022/10/22 09:11:06;;;;;;;2.20;2.03;;;18.70;66.50;;;;;;5108870;27;20433;-85
2022/10/22 09:13:33;;;;;;;1.70;1.50;;;18.60;67.10;;;;;;5109352;27;20475;-86
2022/10/22 09:16:09;;;;;;;1.30;1.10;;;18.60;66.90;;;;;;5110052;27;20528;-86
2022/10/22 09:18:43;;;;;;;1.27;1.03;;;18.80;66.70;;;;;;5109069;27;20548;-85
2022/10/22 09:21:20;;;;;;;3.23;1.13;;;18.90;66.70;;;;;;5114199;27;20445;-85
2022/10/22 09:23:59;;;;;;;1.33;1.00;;;19.00;66.10;;;;;;5110426;27;20465;-87
2022/10/22 09:26:27;;;;;;;1.10;1.00;;;19.10;65.80;;;;;;5107782;27;20599;-86
2022/10/22 09:28:54;;;;;;;2.73;1.37;;;19.10;65.40;;;;;;5105680;27;20831;-84
2022/10/22 09:31:21;;;;;;;3.30;1.20;;;19.00;66.00;;;;;;5109072;27;20573;-86
2022/10/22 09:33:51;;;;;;;2.17;1.10;;;19.10;65.10;;;;;;5108220;27;20470;-85
2022/10/22 09:36:22;;;;;;;2.67;1.50;;;19.00;65.60;;;;;;5107650;27;20450;-86
2022/10/22 09:38:51;;;;;;;4.23;1.70;;;19.20;65.30;;;;;;5107847;27;20466;-85
2022/10/22 09:41:22;;;;;;;1.57;1.17;;;19.40;64.90;;;;;;5107928;27;20451;-85
2022/10/22 09:43:50;;;;;;;3.17;1.30;;;19.50;64.80;;;;;;5108770;27;20976;-87
2022/10/22 09:46:19;;;;;;;1.10;1.00;;;19.60;64.50;;;;;;5108325;27;21304;-86
2022/10/22 09:48:51;;;;;;;1.30;1.20;;;19.60;64.30;;;;;;5107558;27;20437;-86
2022/10/22 09:51:21;;;;;;;2.13;1.03;;;19.70;64.60;;;;;;5108706;27;20442;-86
2022/10/22 09:53:57;;;;;;;1.90;1.40;;;19.70;64.50;;;;;;5106556;27;20554;-86
2022/10/22 09:56:26;;;;;;;3.77;1.70;;;19.70;64.60;;;;;;5112369;27;20476;-85
2022/10/22 09:58:56;;;;;;;5.77;3.97;;;19.80;64.30;;;;;;5109229;27;20473;-86
2022/10/22 10:01:25;;;;;;;2.47;2.20;;;20.00;64.30;;;;;;5108968;27;21032;-84
2022/10/22 10:03:54;;;;;;;2.13;1.90;;;20.00;63.80;;;;;;5108619;27;20474;-85
2022/10/22 10:06:23;;;;;;;1.67;1.10;;;20.10;63.70;;;;;;5110853;27;20458;-86
2022/10/22 10:08:50;;;;;;;2.17;2.07;;;20.00;63.30;;;;;;5110374;27;21205;-86
2022/10/22 10:11:25;;;;;;;2.57;1.50;;;20.10;63.50;;;;;;5110084;27;20744;-86
2022/10/22 10:14:03;;;;;;;3.43;2.97;;;20.10;63.60;;;;;;5110362;27;20633;-86
2022/10/22 10:16:44;;;;;;;2.70;2.50;;;20.30;63.40;;;;;;5108633;27;20482;-85
2022/10/22 10:19:29;;;;;;;6.50;2.10;;;20.40;63.00;;;;;;5107942;27;21164;-87
2022/10/22 10:22:05;;;;;;;1.30;1.10;;;20.40;62.10;;;;;;5108825;27;20450;-86
2022/10/22 10:24:48;;;;;;;1.10;0.97;;;20.40;62.50;;;;;;5109253;27;20474;-86
2022/10/22 10:27:22;;;;;;;2.70;1.10;;;20.50;61.00;;;;;;5108640;27;20496;-86
2022/10/22 10:29:57;;;;;;;4.83;1.40;;;20.60;61.60;;;;;;5107352;27;20443;-86
2022/10/22 10:32:37;;;;;;;1.50;1.30;;;20.70;61.10;;;;;;5110165;27;20449;-86
2022/10/22 10:35:20;;;;;;;4.10;0.90;;;20.80;60.60;;;;;;5109194;27;20461;-84
2022/10/22 10:37:55;;;;;;;3.07;1.30;;;20.80;60.30;;;;;;5110604;27;20470;-87
2022/10/22 10:40:29;;;;;;;3.50;3.20;;;20.90;60.20;;;;;;5107562;27;20439;-87
2022/10/22 10:43:02;;;;;;;2.40;1.10;;;20.70;60.80;;;;;;5107742;27;20460;-86
2022/10/22 10:45:36;;;;;;;2.87;1.80;;;20.80;60.50;;;;;;5109656;27;20454;-85
2022/10/22 10:48:15;;;;;;;1.80;1.00;;;20.70;59.80;;;;;;5109343;27;21014;-87
2022/10/22 10:50:54;;;;;;;2.60;1.10;;;20.70;60.00;;;;;;5106833;27;20785;-86
2022/10/22 10:53:29;;;;;;;1.50;1.40;;;20.80;59.70;;;;;;5107368;27;20527;-87
2022/10/22 10:56:04;;;;;;;2.90;2.20;;;20.80;59.90;;;;;;5108585;27;20450;-85
2022/10/22 10:58:36;;;;;;;9.20;2.07;;;20.80;59.10;;;;;;5105963;27;20498;-87
2022/10/22 11:01:12;;;;;;;2.03;1.30;;;21.00;59.10;;;;;;5107105;27;20441;-86
2022/10/22 11:04:02;;;;;;;6.50;1.20;;;21.10;59.10;;;;;;5106875;27;20993;-86
2022/10/22 11:06:32;;;;;;;2.27;0.90;;;21.20;58.70;;;;;;5105988;27;20553;-87
2022/10/22 11:09:06;;;;;;;1.80;1.23;;;21.20;59.00;;;;;;5108069;27;20438;-86
2022/10/22 11:11:40;;;;;;;3.63;2.00;;;21.20;59.20;;;;;;5106065;27;20454;-85
2022/10/22 11:14:15;;;;;;;8.40;2.67;;;21.20;60.00;;;;;;5108780;27;20472;-84
2022/10/22 11:16:46;;;;;;;5.57;2.27;;;21.30;59.60;;;;;;5107106;27;20449;-86
2022/10/22 11:19:19;;;;;;;3.23;1.57;;;21.50;60.00;;;;;;5108581;27;20469;-86
2022/10/22 11:21:54;;;;;;;7.40;1.93;;;21.60;59.20;;;;;;5107106;28;20444;-86
2022/10/22 11:24:25;;;;;;;2.47;1.97;;;21.80;59.10;;;;;;5107677;28;20472;-87
2022/10/22 11:26:57;;;;;;;1.47;1.17;;;21.80;58.60;;;;;;5105070;28;20549;-86
2022/10/22 11:29:33;;;;;;;1.20;0.90;;;21.90;57.90;;;;;;5108638;28;20442;-86
2022/10/22 11:32:03;;;;;;;2.10;1.03;;;22.00;57.10;;;;;;5107352;28;20933;-85
2022/10/22 11:34:35;;;;;;;7.70;1.20;;;22.00;57.50;;;;;;5106404;28;21091;-86
2022/10/22 11:37:06;;;;;;;4.10;3.00;;;22.00;57.30;;;;;;5108544;28;20470;-86
2022/10/22 11:39:41;;;;;;;8.67;3.03;;;22.10;57.40;;;;;;5108105;28;20442;-87
2022/10/22 11:42:11;;;;;;;6.00;1.77;;;22.40;57.90;;;;;;5108072;28;20465;-86
2022/10/22 11:44:59;;;;;;;14.77;4.77;;;22.50;57.00;;;;;;5105614;28;20557;-86
2022/10/22 11:47:29;;;;;;;15.27;7.90;;;22.30;55.50;;;;;;5108036;28;20443;-87
2022/10/22 11:49:59;;;;;;;2.50;1.27;;;22.30;56.70;;;;;;5107751;28;20534;-84
2022/10/22 11:52:40;;;;;;;1.97;1.73;;;21.90;56.70;;;;;;5107369;28;20540;-86
2022/10/22 11:55:31;;;;;;;3.73;1.57;;;21.90;57.50;;;;;;5104307;28;21136;-87
2022/10/22 11:58:00;;;;;;;1.50;1.20;;;22.00;57.40;;;;;;5108863;28;20473;-86
2022/10/22 12:00:40;;;;;;;5.57;4.10;;;22.00;57.40;;;;;;5106757;28;20508;-86
2022/10/22 12:03:16;;;;;;;4.37;2.30;;;22.30;58.20;;;;;;5107131;28;20452;-88
2022/10/22 12:05:44;;;;;;;1.37;1.10;;;22.50;58.20;;;;;;5107671;28;20446;-87
2022/10/22 12:08:24;;;;;;;5.03;2.83;;;22.70;56.80;;;;;;5107534;28;20474;-84
2022/10/22 12:11:05;;;;;;;4.60;1.20;;;23.00;56.60;;;;;;5106724;27;21202;-87
2022/10/22 12:13:50;;;;;;;11.07;5.70;;;23.30;54.30;;;;;;5105593;28;21005;-87
2022/10/22 12:16:18;;;;;;;4.13;1.50;;;23.50;55.70;;;;;;5106410;28;20440;-87
2022/10/22 12:18:46;;;;;;;10.87;6.60;;;23.70;54.00;;;;;;5109608;27;21165;-86
2022/10/22 12:21:14;;;;;;;8.73;5.27;;;24.00;53.80;;;;;;5111683;27;20435;-86
2022/10/22 12:23:45;;;;;;;4.90;2.50;;;24.00;52.50;;;;;;5109916;27;20465;-86
2022/10/22 12:26:24;;;;;;;5.87;3.23;;;23.90;52.30;;;;;;5094651;27;20933;-86
2022/10/22 12:28:51;;;;;;;4.37;1.60;;;23.80;52.60;;;;;;5110232;27;20438;-87
2022/10/22 12:31:18;;;;;;;1.83;1.37;;;23.80;52.40;;;;;;5110073;27;20997;-88
2022/10/22 12:33:45;;;;;;;1.93;1.70;;;23.90;50.80;;;;;;5112165;27;20467;-87
2022/10/22 12:36:17;;;;;;;3.33;1.43;;;23.80;51.70;;;;;;5109167;27;20514;-87
2022/10/22 12:38:47;;;;;;;2.90;1.30;;;23.80;52.40;;;;;;5107638;27;20535;-85
2022/10/22 12:41:14;;;;;;;9.80;3.47;;;23.70;52.70;;;;;;5111981;27;21042;-86
2022/10/22 12:43:42;;;;;;;6.90;1.73;;;23.70;52.80;;;;;;5111484;27;20474;-87
2022/10/22 12:46:12;;;;;;;4.17;2.07;;;23.70;52.60;;;;;;5110677;27;20483;-86
2022/10/22 12:48:42;;;;;;;1.70;1.40;;;23.70;52.80;;;;;;5110518;27;20458;-86
2022/10/22 12:51:16;;;;;;;3.07;1.60;;;23.60;52.80;;;;;;5110650;27;20446;-88
2022/10/22 12:53:47;;;;;;;4.70;1.63;;;23.50;53.60;;;;;;5109632;27;20472;-86
2022/10/22 12:56:20;;;;;;;3.57;1.20;;;23.50;53.70;;;;;;5110548;27;20528;-86
2022/10/22 12:58:55;;;;;;;2.37;1.80;;;23.80;54.60;;;;;;5110547;27;20458;-88
2022/10/22 13:01:22;;;;;;;2.00;1.00;;;24.00;53.10;;;;;;5109307;27;20465;-88